Main page
METAR-TAF:

METAR-TAF

Airports :

Karachi, Pakistan

Jinnah International Airport

latitude: 24-54N, longitude: 067-08E, elevation: 21 m

Current weather observation

The report was made 36 minutes ago, at 11:25 UTC
Wind 11 kt from the South/Southwest
Temperature 36°C
Humidity 45%
Pressure 996 hPa
Visibility: 7000 m
Few clouds at a height of 2000 ft

METAR: OPKC 261125Z 21011KT 7000 FEW020 36/22 Q0996 NOSIG

Time: 17:01 (12:01 UTC)


TAF: missing

Weather observations and forecasts of more than 4000 airports (METAR and TAF reports).

The available stations are represented by yellow and red dots on the map.

Hover mouse over dot to see the name of the station.

Then click to see weather observations and forecasts.

To change the map : click on the green buttons with a black cross to zoom in, on the green button with a dash to zoom out, or on the green arrows for adjacent maps.


METAR-TAF: